Flight Track Log - Related Links

Times and Time Zones

All times are in EDT time to prevent confusion due to time zone crossing. See the SWA3206 flight status page for this flight to view local times or setup timezone preferences in your user account.

Time Position Orientation Groundspeed Altitude Reporting Facility
EDT Latitude Longitude Course Direction KTS MPH feet Rate Location/Type
Tue 08:58:15 PM 33.4333 -112.0333 270° West 168 193 2,000  Level Phoenix TRACON
Tue 08:59:33 PM 33.4333 -112.1167 270° West 212 244 5,500 2,579 Climbing Phoenix TRACON
Tue 09:00:16 PM 33.4597 -112.1467 317° Northwest 230 265 7,200 2,457 Climbing Albuquerque Center
Tue 09:01:18 PM 33.5169 -112.1061 31° Northeast 297 342 9,800 2,710 Climbing Albuquerque Center
Tue 09:02:20 PM 33.5428 -111.9786 76° East 344 396 12,800 3,024 Climbing Albuquerque Center
Tue 09:03:21 PM 33.5683 -111.8586 76° East 373 429 16,000 3,268 Climbing Albuquerque Center
Tue 09:04:23 PM 33.5936 -111.7353 76° East 384 442 19,500 2,829 Climbing Albuquerque Center
Tue 09:05:24 PM 33.6200 -111.6053 76° East 402 463 21,800 2,508 Climbing Albuquerque Center
Tue 09:06:25 PM 33.6478 -111.4708 76° East 418 481 24,600 2,488 Climbing Albuquerque Center
Tue 09:07:27 PM 33.6744 -111.3339 77° East 424 488 26,900 2,146 Climbing Albuquerque Center
Tue 09:08:28 PM 33.7228 -111.1703 70° East 437 503 29,000 1,707 Climbing Albuquerque Center
Tue 09:09:30 PM 33.7731 -111.0306 67° East 455 524 30,400 1,659 Climbing Albuquerque Center
Tue 09:10:31 PM 33.8239 -110.8867 67° East 465 535 32,400 2,049 Climbing Albuquerque Center
Tue 09:11:33 PM 33.8733 -110.7467 67° East 461 531 34,600 1,268 Climbing Albuquerque Center
Tue 09:12:34 PM 33.9219 -110.6097 67° East 453 521 35,000 195 Climbing Albuquerque Center
Tue 09:13:36 PM 33.9700 -110.4728 67° East 448 516 35,000  Level Albuquerque Center
Tue 09:14:37 PM 34.0175 -110.3336 68° East 448 516 35,000  Level Albuquerque Center
Tue 09:15:39 PM 34.0750 -110.1694 67° East 447 514 35,000 195 Level Albuquerque Center
Tue 09:16:40 PM 34.1256 -110.0228 67° East 449 517 35,400 934 Climbing Albuquerque Center
Tue 09:17:41 PM 34.1719 -109.8900 67° East 450 518 36,900 780 Climbing Albuquerque Center
Tue 09:18:43 PM 34.2167 -109.7564 68° East 449 517 37,000 49 Climbing Albuquerque Center
Tue 09:19:44 PM 34.2694 -109.6006 68° East 449 517 37,000  Level Albuquerque Center
Tue 09:20:46 PM 34.3147 -109.4694 67° East 446 513 37,000  Level Albuquerque Center
Tue 09:21:47 PM 34.3683 -109.3131 67° East 449 517 37,000  Level Albuquerque Center
Tue 09:22:49 PM 34.4167 -109.1792 66° East 452 520 37,000  Level Albuquerque Center
Tue 09:23:50 PM 34.4781 -109.0547 59° Northeast 453 521 37,000  Level Albuquerque Center
Tue 09:24:51 PM 34.5461 -108.9086 60° Northeast 449 517 37,000  Level Albuquerque Center
Tue 09:25:53 PM 34.6056 -108.7828 60° Northeast 450 518 37,000  Level Albuquerque Center
Tue 09:26:54 PM 34.6742 -108.6350 61° Northeast 451 519 37,000  Level Albuquerque Center
Tue 09:27:56 PM 34.7328 -108.5075 61° Northeast 453 521 37,000  Level Albuquerque Center
Tue 09:28:57 PM 34.7989 -108.3647 61° Northeast 455 524 37,000  Level Albuquerque Center
Tue 09:29:58 PM 34.8600 -108.2281 61° Northeast 456 525 37,000  Level Albuquerque Center
Tue 09:31:00 PM 34.9197 -108.0989 61° Northeast 458 527 37,000  Level Albuquerque Center
Tue 09:32:01 PM 34.9875 -107.9489 61° Northeast 455 524 37,000  Level Albuquerque Center
Tue 09:33:02 PM 35.0450 -107.8206 61° Northeast 453 521 37,000  Level Albuquerque Center
Tue 09:34:04 PM 35.1136 -107.6697 61° Northeast 455 524 37,000  Level Albuquerque Center
Tue 09:35:05 PM 35.1711 -107.5406 61° Northeast 455 524 37,000  Level Albuquerque Center
Tue 09:36:06 PM 35.2269 -107.4156 61° Northeast 457 526 37,000  Level Albuquerque Center
Tue 09:37:08 PM 35.2892 -107.2778 61° Northeast 459 528 37,000  Level Albuquerque Center
Tue 09:38:09 PM 35.3556 -107.1247 62° Northeast 460 529 37,000  Level Albuquerque Center
Tue 09:39:10 PM 35.4122 -107.0000 61° Northeast 459 528 37,000  Level Albuquerque Center
Tue 09:40:12 PM 35.4731 -106.8617 62° Northeast 459 528 37,000 488 Level Albuquerque Center
Tue 09:41:13 PM 35.5444 -106.6947 62° Northeast 456 525 38,000 984 Climbing Albuquerque Center
Tue 09:42:14 PM 35.6047 -106.5583 61° Northeast 454 522 39,000 488 Climbing Albuquerque Center
Tue 09:43:16 PM 35.6633 -106.4275 61° Northeast 454 522 39,000  Level Albuquerque Center
Tue 09:44:17 PM 35.7278 -106.2761 62° Northeast 449 517 39,000  Level Albuquerque Center
Tue 09:45:18 PM 35.7800 -106.1472 63° Northeast 452 520 39,000  Level Albuquerque Center
Tue 09:46:19 PM 35.8375 -106.0125 62° Northeast 447 514 39,000  Level Albuquerque Center
Tue 09:47:21 PM 35.8956 -105.8789 62° Northeast 443 510 39,000  Level Albuquerque Center
Tue 09:48:22 PM 35.9519 -105.7456 62° Northeast 440 506 39,000  Level Albuquerque Center
Tue 09:49:23 PM 36.0092 -105.6117 62° Northeast 440 506 39,000  Level Albuquerque Center
Tue 09:50:25 PM 36.0694 -105.4667 63° Northeast 443 510 39,000  Level Albuquerque Center
Tue 09:51:26 PM 36.1275 -105.3267 63° Northeast 449 517 39,000  Level Albuquerque Center
Tue 09:52:27 PM 36.1847 -105.1875 63° Northeast 450 518 39,000  Level Albuquerque Center
Tue 09:53:29 PM 36.2428 -105.0483 63° Northeast 449 517 39,000  Level Albuquerque Center
Tue 09:54:30 PM 36.3103 -104.8842 63° Northeast 453 521 39,000  Level Albuquerque Center
Tue 09:55:31 PM 36.3686 -104.7447 63° Northeast 452 520 39,000  Level Albuquerque Center
Tue 09:56:33 PM 36.4258 -104.6053 63° Northeast 450 518 39,000  Level Albuquerque Center
Tue 09:57:34 PM 36.4814 -104.4653 64° Northeast 447 514 39,000  Level Albuquerque Center
Tue 09:58:35 PM 36.5397 -104.3261 62° Northeast 448 516 39,000  Level Albuquerque Center
Tue 09:59:36 PM 36.5961 -104.1878 63° Northeast 445 512 39,000  Level Albuquerque Center
Tue 10:00:38 PM 36.6533 -104.0483 63° Northeast 446 513 39,000  Level Albuquerque Center
Tue 10:01:39 PM 36.7056 -103.9175 64° Northeast 446 513 39,000  Level Albuquerque Center
Tue 10:02:40 PM 36.7667 -103.7631 64° Northeast 447 514 39,000  Level Albuquerque Center
Tue 10:03:42 PM 36.8200 -103.6306 63° Northeast 447 514 39,000  Level Albuquerque Center
Tue 10:04:43 PM 36.8806 -103.4764 64° Northeast 446 513 39,000  Level Albuquerque Center
Tue 10:05:44 PM 36.9331 -103.3419 64° Northeast 449 517 39,000  Level Albuquerque Center
Tue 10:06:45 PM 36.9853 -103.2094 64° Northeast 447 514 39,000  Level Albuquerque Center
Tue 10:07:47 PM 37.0464 -103.0522 64° Northeast 451 519 39,000  Level Albuquerque Center
Tue 10:08:48 PM 37.0992 -102.9153 64° Northeast 454 522 39,000  Level Albuquerque Center
Tue 10:09:49 PM 37.1617 -102.7561 64° Northeast 457 526 39,000  Level Albuquerque Center
Tue 10:10:50 PM 37.2139 -102.6194 64° Northeast 456 525 39,000  Level Albuquerque Center
Tue 10:12:00 PM 37.2726 -102.4585 65° Northeast  Level FlightAware Approximate
Tue 10:12:53 PM 37.3275 -102.3242 65° Northeast 454 522 39,000  Level Albuquerque Center
Tue 10:13:54 PM 37.3794 -102.1856 65° Northeast 457 526 39,000  Level Albuquerque Center
Tue 10:14:56 PM 37.4356 -102.0356 65° Northeast 457 526 39,000  Level Albuquerque Center
Tue 10:15:57 PM 37.4878 -101.8964 65° Northeast 458 527 39,000  Level Albuquerque Center
Tue 10:17:00 PM 37.5404 -101.7509 65° Northeast  Level FlightAware Approximate
Tue 10:18:59 PM 37.6508 -101.4561 64° Northeast 454 522 39,000  Level Kansas City Center
Tue 10:20:00 PM 37.7106 -101.2947 65° Northeast 454 522 39,000  Level Kansas City Center
Tue 10:21:01 PM 37.7619 -101.1578 65° Northeast 450 518 39,000  Level Kansas City Center
Tue 10:22:03 PM 37.8125 -101.0178 65° Northeast 451 519 39,000  Level Kansas City Center
Tue 10:23:04 PM 37.8717 -100.8542 65° Northeast 451 519 39,000  Level Kansas City Center
Tue 10:24:00 PM 37.8932 -100.7795 64° Northeast  Level FlightAware Approximate
Tue 10:24:05 PM 37.9181 -100.7108 68° East 455 524 39,000  Level Kansas City Center
Tue 10:25:07 PM 37.9325 -100.5564 83° East 458 527 39,000  Level Kansas City Center
Tue 10:26:08 PM 37.9472 -100.3767 84° East 459 528 39,000 98 Level Kansas City Center
Tue 10:27:09 PM 37.9592 -100.2228 84° East 456 525 39,200 634 Climbing Kansas City Center
Tue 10:28:11 PM 37.9725 -100.0403 85° East 463 533 40,300 878 Climbing Kansas City Center
Tue 10:29:12 PM 37.9842 -99.8842 85° East 466 536 41,000 344 Climbing Kansas City Center
Tue 10:30:13 PM 37.9967 -99.7319 84° East 459 528 41,000  Level Kansas City Center
Tue 10:31:15 PM 38.0100 -99.5511 85° East 459 528 41,000  Level Kansas City Center
Tue 10:32:16 PM 38.0194 -99.4036 85° East 460 529 41,000  Level Kansas City Center
Tue 10:33:17 PM 38.0317 -99.2428 84° East 460 529 41,000  Level Kansas City Center
Tue 10:34:19 PM 38.0425 -99.0817 85° East 459 528 41,000  Level Kansas City Center
Tue 10:35:20 PM 38.0544 -98.9214 85° East 457 526 41,000  Level Kansas City Center
Tue 10:36:21 PM 38.0656 -98.7617 85° East 456 525 41,000  Level Kansas City Center
Tue 10:37:22 PM 38.0789 -98.5706 85° East 453 521 41,000  Level Kansas City Center
Tue 10:38:24 PM 38.0894 -98.4114 85° East 454 522 41,000  Level Kansas City Center
Tue 10:39:25 PM 38.0994 -98.2517 85° East 450 518 41,000  Level Kansas City Center
Tue 10:40:26 PM 38.1081 -98.1031 86° East 451 519 41,000  Level Kansas City Center
Tue 10:41:27 PM 38.1169 -97.9422 86° East 454 522 41,000  Level Kansas City Center
Tue 10:42:28 PM 38.1281 -97.7681 85° East 453 521 41,000  Level Kansas City Center
Tue 10:43:30 PM 38.1369 -97.6083 86° East 454 522 41,000  Level Kansas City Center
Tue 10:44:31 PM 38.1461 -97.4442 86° East 452 520 41,000  Level Kansas City Center
Tue 10:45:32 PM 38.1550 -97.2856 86° East 450 518 41,000  Level Kansas City Center
Tue 10:46:33 PM 38.1642 -97.1264 86° East 452 520 41,000  Level Kansas City Center
Tue 10:47:34 PM 38.1719 -96.9664 86° East 451 519 41,000  Level Kansas City Center
Tue 10:48:35 PM 38.1803 -96.8075 86° East 452 520 41,000  Level Kansas City Center
Tue 10:49:36 PM 38.1889 -96.6483 86° East 452 520 41,000  Level Kansas City Center
Tue 10:50:37 PM 38.1953 -96.4900 87° East 451 519 41,000  Level Kansas City Center
Tue 10:51:38 PM 38.2039 -96.3169 86° East 446 513 41,000  Level Kansas City Center
Tue 10:53:40 PM 38.2172 -95.9875 87° East 451 519 41,000  Level Kansas City Center
Tue 10:54:42 PM 38.2236 -95.8367 87° East 449 517 41,000  Level Kansas City Center
Tue 10:55:43 PM 38.2306 -95.6600 87° East 453 521 41,000  Level Kansas City Center
Tue 10:56:44 PM 38.2372 -95.5075 87° East 452 520 41,000  Level Kansas City Center
Tue 10:57:45 PM 38.2433 -95.3536 87° East 454 522 41,000  Level Kansas City Center
Tue 10:58:46 PM 38.2494 -95.1739 87° East 456 525 41,000  Level Kansas City Center
Tue 10:59:47 PM 38.2553 -95.0217 87° East 455 524 41,000  Level Kansas City Center
Tue 11:00:48 PM 38.2603 -94.8703 88° East 453 521 41,000  Level Kansas City Center
Tue 11:01:49 PM 38.2667 -94.6933 87° East 451 519 41,000  Level Kansas City Center
Tue 11:02:50 PM 38.2714 -94.5422 88° East 449 517 41,000  Level Kansas City Center
Tue 11:03:51 PM 38.2931 -94.3669 81° East 455 524 41,000  Level Kansas City Center
Tue 11:04:51 PM 38.3167 -94.2200 78° East 448 516 41,000  Level Kansas City Center
Tue 11:05:52 PM 38.3383 -94.0750 79° East 446 513 41,000  Level Kansas City Center
Tue 11:06:53 PM 38.3644 -93.9192 78° East 446 513 41,000  Level Kansas City Center
Tue 11:07:54 PM 38.3883 -93.7628 79° East 448 516 41,000  Level Kansas City Center
Tue 11:08:55 PM 38.4142 -93.6050 78° East 452 520 41,000  Level Kansas City Center
Tue 11:09:56 PM 38.4389 -93.4483 79° East 449 517 41,000  Level Kansas City Center
Tue 11:10:57 PM 38.4681 -93.2581 79° East 452 520 41,000  Level Kansas City Center
Tue 11:11:58 PM 38.4928 -93.0992 79° East 453 521 41,000  Level Kansas City Center
Tue 11:12:59 PM 38.5181 -92.9394 79° East 454 522 41,000  Level Kansas City Center
Tue 11:14:00 PM 38.5408 -92.7825 79° East 451 519 41,000  Level Kansas City Center
Tue 11:15:01 PM 38.5639 -92.6253 79° East 448 516 41,000  Level Kansas City Center
Tue 11:16:02 PM 38.5881 -92.4675 79° East 449 517 41,000  Level Kansas City Center
Tue 11:17:03 PM 38.6106 -92.3092 80° East 449 517 41,000  Level Kansas City Center
Tue 11:18:04 PM 38.6325 -92.1528 80° East 445 512 41,000  Level Kansas City Center
Tue 11:19:05 PM 38.6547 -91.9981 80° East 442 509 41,000  Level Kansas City Center
Tue 11:20:06 PM 38.6772 -91.8428 79° East 442 509 41,000  Level Kansas City Center
Tue 11:21:07 PM 38.6992 -91.6875 80° East 441 507 41,000  Level Kansas City Center
Tue 11:22:08 PM 38.7169 -91.5528 80° East 440 506 41,000  Level Kansas City Center
Tue 11:24:10 PM 38.7636 -91.2108 80° East 443 510 41,000  Level Kansas City Center
Tue 11:25:11 PM 38.7853 -91.0539 80° East 446 513 41,000  Level Kansas City Center
Tue 11:26:12 PM 38.8064 -90.8967 80° East 447 514 41,000  Level Kansas City Center
Tue 11:27:13 PM 38.8278 -90.7381 80° East 449 517 41,000  Level Kansas City Center
Tue 11:28:14 PM 38.8481 -90.5875 80° East 450 518 41,000  Level Kansas City Center
Tue 11:29:15 PM 38.8703 -90.4281 80° East 451 519 41,000  Level Kansas City Center
Tue 11:30:16 PM 38.8975 -90.2681 78° East 454 522 41,000  Level Kansas City Center
Tue 11:31:17 PM 38.9233 -90.1094 78° East 453 521 41,000  Level Kansas City Center
Tue 11:32:18 PM 38.9506 -89.9281 79° East 448 516 41,000  Level Kansas City Center
Tue 11:33:19 PM 38.9761 -89.7711 78° East 448 516 41,000  Level Kansas City Center
Tue 11:34:20 PM 39.0008 -89.6133 79° East 450 518 41,000  Level Kansas City Center
Tue 11:35:21 PM 39.0264 -89.4428 79° East 452 520 41,000  Level Kansas City Center
Tue 11:36:22 PM 39.0503 -89.2850 79° East 451 519 41,000  Level Kansas City Center
Tue 11:37:22 PM 39.0733 -89.1242 79° East 456 525 41,000  Level Kansas City Center
Tue 11:38:23 PM 39.0981 -88.9639 79° East 459 528 41,000  Level Kansas City Center
Tue 11:39:24 PM 39.1233 -88.8264 77° East 461 531 41,000  Level Kansas City Center
Tue 11:40:25 PM 39.1447 -88.6656 80° East 459 528 41,000  Level Kansas City Center
Tue 11:41:26 PM 39.1731 -88.4850 79° East 459 528 41,000  Level Kansas City Center
Tue 11:42:27 PM 39.1947 -88.3242 80° East 456 525 41,000  Level Kansas City Center
Tue 11:43:28 PM 39.2178 -88.1628 80° East 455 524 41,000  Level Kansas City Center
Tue 11:44:29 PM 39.2403 -88.0008 80° East 456 525 41,000  Level Kansas City Center
Tue 11:45:29 PM 39.2625 -87.8411 80° East 452 520 41,000  Level Kansas City Center
Tue 11:46:04 PM 39.2742 -87.7450 81° East 458 527 41,000  Level Indianapolis Center
Tue 11:47:05 PM 39.2958 -87.5864 80° East 455 524 41,000  Level Indianapolis Center
Tue 11:48:06 PM 39.3183 -87.4233 80° East 459 528 41,000  Level Indianapolis Center
Tue 11:49:07 PM 39.3411 -87.2600 80° East 461 531 41,000  Level Indianapolis Center
Tue 11:51:00 PM 39.3778 -86.9698 81° East  Level FlightAware Approximate
Tue 11:55:11 PM 39.4714 -86.2447 82° East 463 533 41,000  Level Indianapolis Center
Tue 11:56:12 PM 39.4911 -86.0811 81° East 463 533 41,000  Level Indianapolis Center
Tue 11:57:13 PM 39.5111 -85.9169 81° East 463 533 41,000  Level Indianapolis Center
Tue 11:58:00 PM 39.5077 -85.8887 81° East  Level FlightAware Approximate
Tue 11:58:14 PM 39.5317 -85.7522 81° East 462 532 41,000  Level Indianapolis Center
Tue 11:59:00 PM 39.5254 -85.7339 81° East  Level FlightAware Approximate
Tue 11:59:14 PM 39.5508 -85.5878 81° East 463 533 41,000  Level Indianapolis Center
Wed 12:00:00 AM 39.5430 -85.5790 82° East  Level FlightAware Approximate
Wed 12:00:15 AM 39.5714 -85.4225 81° East 463 533 41,000  Level Indianapolis Center
Wed 12:01:16 AM 39.5906 -85.2575 81° East 463 533 41,000  Level Indianapolis Center
Wed 12:02:16 AM 39.6083 -85.0919 82° East 462 532 41,000  Level Indianapolis Center
Wed 12:03:17 AM 39.6283 -84.9267 81° East 462 532 41,000  Level Indianapolis Center
Wed 12:04:18 AM 39.6483 -84.7525 81° East 464 534 41,000  Level Indianapolis Center
Wed 12:05:18 AM 39.6650 -84.5858 83° East 464 534 41,000  Level Indianapolis Center
Wed 12:06:19 AM 39.6844 -84.4203 81° East 460 529 41,000  Level Indianapolis Center
Wed 12:07:20 AM 39.7022 -84.2536 82° East 463 533 41,000  Level Indianapolis Center
Wed 12:08:20 AM 39.7203 -84.0889 82° East 459 528 41,000  Level Indianapolis Center
Wed 12:09:21 AM 39.7367 -83.9231 83° East 462 532 41,000  Level Indianapolis Center
Wed 12:10:22 AM 39.7536 -83.7564 82° East 463 533 41,000  Level Indianapolis Center
Wed 12:11:22 AM 39.7683 -83.5994 83° East 460 529 41,000  Level Indianapolis Center
Wed 12:12:23 AM 39.7875 -83.4308 82° East 467 537 41,000  Level Indianapolis Center
Wed 12:13:24 AM 39.8033 -83.2658 83° East 462 532 41,000  Level Indianapolis Center
Wed 12:14:24 AM 39.8200 -83.0989 83° East 462 532 41,000  Level Indianapolis Center
Wed 12:15:25 AM 39.8350 -82.9328 83° East 461 531 41,000  Level Indianapolis Center
Wed 12:16:26 AM 39.8517 -82.7653 83° East 463 533 41,000  Level Indianapolis Center
Wed 12:17:26 AM 39.8678 -82.5961 83° East 467 537 41,000  Level Indianapolis Center
Wed 12:18:27 AM 39.8825 -82.4275 83° East 467 537 41,000  Level Indianapolis Center
Wed 12:19:28 AM 39.8964 -82.2617 84° East 460 529 41,000  Level Indianapolis Center
Wed 12:20:29 AM 39.9122 -82.0967 83° East 458 527 41,000  Level Indianapolis Center
Wed 12:21:29 AM 39.9258 -81.9311 84° East 457 526 41,000  Level Indianapolis Center
Wed 12:22:30 AM 39.9403 -81.7664 83° East 454 522 41,000  Level Indianapolis Center
Wed 12:23:31 AM 39.9289 -81.6003 95° East 456 525 41,000  Level Indianapolis Center
Wed 12:24:31 AM 39.9047 -81.4117 99° East 455 524 41,000  Level Indianapolis Center
Wed 12:25:32 AM 39.8819 -81.2492 100° East 454 522 41,000  Level Indianapolis Center
Wed 12:27:00 AM 39.8558 -81.0960 102° East  Level FlightAware Approximate
Wed 12:29:34 AM 39.7964 -80.6044 99° East 448 516 41,000  Level Indianapolis Center
Wed 12:30:00 AM 39.7931 -80.5500 95° East 448 516 41,000  Level Washington Center
Wed 12:31:01 AM 39.7703 -80.3917 101° East 448 516 41,000  Level Washington Center
Wed 12:32:00 AM 39.7472 -80.2336 101° East 448 516 41,000  Level Washington Center
Wed 12:33:01 AM 39.7281 -80.0786 99° East 448 516 41,000  Level Washington Center
Wed 12:34:00 AM 39.6982 -80.0189 99° East  Level FlightAware Approximate
Wed 12:34:01 AM 39.7047 -79.9206 101° East 441 507 41,000  Level Washington Center
Wed 12:35:03 AM 39.6811 -79.7600 101° East 446 513 41,000  Level Washington Center
Wed 12:36:03 AM 39.6594 -79.6053 100° East 446 513 41,000  Level Washington Center
Wed 12:37:01 AM 39.6356 -79.4447 101° East 446 513 41,000  Level Washington Center
Wed 12:38:02 AM 39.6114 -79.2819 101° East 451 519 41,000 -1,240 Level Washington Center
Wed 12:39:02 AM 39.5833 -79.1056 102° East 451 519 38,500 -2,622 Descending Washington Center
Wed 12:40:01 AM 39.5606 -78.9508 101° East 451 519 35,800 -3,126 Descending Washington Center
Wed 12:41:01 AM 39.5358 -78.7911 101° East 446 513 32,300 -3,400 Descending Washington Center
Wed 12:42:01 AM 39.5108 -78.6339 102° East 446 513 29,000 -2,975 Descending Washington Center
Wed 12:43:02 AM 39.4853 -78.4794 102° East 446 513 26,300 -2,471 Descending Washington Center
Wed 12:44:00 AM 39.4656 -78.3417 100° East 441 507 24,100 -2,400 Descending Washington Center
Wed 12:45:02 AM 39.4417 -78.1956 102° East 429 494 21,500 -2,508 Descending Washington Center
Wed 12:46:02 AM 39.4178 -78.0522 102° East 412 474 19,000 -2,492 Descending Washington Center
Wed 12:47:00 AM 39.3953 -77.9172 102° East 402 463 16,600 -2,017 Descending Washington Center
Wed 12:48:01 AM 39.3917 -77.7828 92° East 382 440 15,000 -1,983 Descending Washington Center
Wed 12:49:01 AM 39.3917 -77.6594 90° East 363 418 12,600 -2,083 Descending Washington Center
Wed 12:50:02 AM 39.3772 -77.5328 98° East 356 410 10,800 -1,350 Descending Washington Center
Wed 12:51:01 AM 39.3642 -77.4250 99° East 331 381 9,900 -1,140 Descending Washington Center
Wed 12:52:03 AM 39.3511 -77.3281 100° East 295 339 8,500 -1,617 Descending Washington Center
Wed 12:52:56 AM 39.3333 -77.2333 104° East 274 315 6,800 -1,646 Descending Potomac TRACON
Wed 12:53:56 AM 39.3333 -77.1333 90° East 266 306 5,400 -1,350 Descending Potomac TRACON
Wed 12:54:56 AM 39.3167 -77.0333 102° East 259 298 4,100 -733 Descending Potomac TRACON
Wed 12:56:00 AM 39.2626 -76.8932 38° Northeast  Level Estimated
Wed 12:56:56 AM 39.3000 -76.8833 38° Northeast 179 206 3,200  Level Potomac TRACON
Wed 12:57:56 AM 39.3000 -76.8333 90° East 154 177 2,800 -286 Descending Potomac TRACON
Wed 12:59:02 AM 39.2833 -76.7833 113° Southeast 123 142 2,600 -182 Descending Potomac TRACON
Wed 01:01:00 AM 39.1754 -76.6683 142° Southeast  Level Estimated
Wed 01:08:00 AM 39.1754 -76.6683 142° Southeast  Level Estimated
Wed 01:09:00 AM 39.1754 -76.6683 142° Southeast  Level Estimated
Wed 01:10:00 AM 39.1754 -76.6683 142° Southeast  Level Estimated
Wed 01:11:00 AM 39.1754 -76.6683 142° Southeast  Level Estimated
Wed 01:12:00 AM 39.1754 -76.6683 142° Southeast  Level Estimated
Wed 01:13:00 AM 39.1754 -76.6683 142° Southeast  Level Estimated
Wed 01:14:00 AM 39.1754 -76.6683 142° Southeast  Level Estimated
Wed 01:15:00 AM 39.1754 -76.6683 142° Southeast  Level Estimated

Login

Don't have an account? Register now (free) for customized features, flight alerts, and more!